createdAt,value
2023-07-27T00:00:31.591Z,60.34
2023-07-27T00:02:59.578Z,60.62
2023-07-27T00:05:27.574Z,60.73
2023-07-27T00:07:56.728Z,60.50
2023-07-27T00:10:25.359Z,60.92
2023-07-27T00:12:53.536Z,60.80
2023-07-27T00:15:21.403Z,60.92
2023-07-27T00:17:49.275Z,61.02
2023-07-27T00:20:17.275Z,61.32
2023-07-27T00:22:45.285Z,61.75
2023-07-27T00:25:14.554Z,61.83
2023-07-27T00:27:42.393Z,61.77
2023-07-27T00:30:10.748Z,62.10
2023-07-27T00:32:38.570Z,61.87
2023-07-27T00:35:07.881Z,61.72
2023-07-27T00:37:35.706Z,62.12
2023-07-27T00:40:03.628Z,62.23
2023-07-27T00:42:32.837Z,62.13
2023-07-27T00:45:00.768Z,62.65
2023-07-27T00:47:28.702Z,62.59
2023-07-27T00:49:56.623Z,62.56
2023-07-27T00:52:25.744Z,62.52
2023-07-27T00:54:57.941Z,62.87
2023-07-27T00:57:26.396Z,62.93
2023-07-27T00:59:55.654Z,62.71
2023-07-27T01:02:23.552Z,63.26
2023-07-27T01:04:51.420Z,63.19
2023-07-27T01:07:19.225Z,63.42
2023-07-27T01:09:47.772Z,63.54
2023-07-27T01:12:22.434Z,63.34
2023-07-27T01:15:00.245Z,63.52
2023-07-27T01:17:34.895Z,63.48
2023-07-27T01:20:15.457Z,63.94
2023-07-27T01:23:19.297Z,63.87
2023-07-27T01:26:04.177Z,63.99
2023-07-27T01:28:49.568Z,63.95
2023-07-27T01:31:22.712Z,64.21
2023-07-27T01:33:56.194Z,64.31
2023-07-27T01:36:28.126Z,64.32
2023-07-27T01:39:00.669Z,64.88
2023-07-27T01:41:29.297Z,64.74
2023-07-27T01:43:58.496Z,64.73
2023-07-27T01:46:31.169Z,64.67
2023-07-27T01:49:01.994Z,65.12
2023-07-27T01:51:31.953Z,65.23
2023-07-27T01:54:00.384Z,65.31
2023-07-27T01:56:30.750Z,65.63
2023-07-27T01:58:59.933Z,65.60
2023-07-27T02:01:30.651Z,65.60
2023-07-27T02:03:59.002Z,65.92
2023-07-27T02:06:27.304Z,65.96
2023-07-27T02:08:55.167Z,65.80
2023-07-27T02:11:25.117Z,66.31
2023-07-27T02:13:59.459Z,66.22
2023-07-27T02:16:34.126Z,66.25
2023-07-27T02:19:04.027Z,66.37
2023-07-27T02:21:34.070Z,66.49
2023-07-27T02:24:02.223Z,66.38
2023-07-27T02:26:30.804Z,66.39
2023-07-27T02:29:00.051Z,66.57
2023-07-27T02:31:29.882Z,66.84
2023-07-27T02:33:57.802Z,66.67
2023-07-27T02:36:26.398Z,67.16
2023-07-27T02:38:54.377Z,66.69
2023-07-27T02:41:23.387Z,67.10
2023-07-27T02:43:53.391Z,67.06
2023-07-27T02:46:24.463Z,67.39
2023-07-27T02:48:54.692Z,67.60
2023-07-27T02:51:22.817Z,67.63
2023-07-27T02:53:50.954Z,67.59
2023-07-27T02:56:26.515Z,67.45
2023-07-27T02:58:54.454Z,67.70
2023-07-27T03:01:23.833Z,68.02
2023-07-27T03:04:01.603Z,68.29
2023-07-27T03:06:29.630Z,68.15
2023-07-27T03:09:00.662Z,68.06
2023-07-27T03:11:28.852Z,68.35
2023-07-27T03:13:59.134Z,68.37
2023-07-27T03:16:27.057Z,68.60
2023-07-27T03:18:54.868Z,68.28
2023-07-27T03:21:24.246Z,68.80
2023-07-27T03:23:52.788Z,68.62
2023-07-27T03:26:20.759Z,68.86
2023-07-27T03:28:48.538Z,69.00
2023-07-27T03:31:18.092Z,68.95
2023-07-27T03:33:46.117Z,69.23
2023-07-27T03:36:15.198Z,69.19
2023-07-27T03:38:45.756Z,69.22
2023-07-27T03:41:13.806Z,69.26
2023-07-27T03:43:41.941Z,69.38
2023-07-27T03:46:10.214Z,69.54
2023-07-27T03:48:38.217Z,69.32
2023-07-27T03:51:06.132Z,69.38
2023-07-27T03:53:34.015Z,69.49
2023-07-27T03:56:03.321Z,69.82
2023-07-27T03:58:31.483Z,69.84
2023-07-27T04:00:59.714Z,69.38
2023-07-27T04:03:27.748Z,70.03
2023-07-27T04:05:55.828Z,70.13
2023-07-27T04:08:23.705Z,69.80
2023-07-27T04:10:51.521Z,70.29
2023-07-27T04:13:20.686Z,70.27
2023-07-27T04:15:48.478Z,70.29
2023-07-27T04:18:16.363Z,70.39
2023-07-27T04:20:44.304Z,70.13
2023-07-27T04:23:12.126Z,70.55
2023-07-27T04:25:39.968Z,70.64
2023-07-27T04:28:08.189Z,70.73
2023-07-27T04:30:37.381Z,70.88
2023-07-27T04:33:05.304Z,70.51
2023-07-27T04:35:33.160Z,70.68
2023-07-27T04:38:00.999Z,70.77
2023-07-27T04:40:28.960Z,70.97
2023-07-27T04:42:56.752Z,70.78
2023-07-27T04:45:24.677Z,70.82
2023-07-27T04:47:53.873Z,71.00
2023-07-27T04:50:21.732Z,71.23
2023-07-27T04:52:49.558Z,71.19
2023-07-27T04:55:17.529Z,71.20
2023-07-27T04:57:45.449Z,71.31
2023-07-27T05:00:14.809Z,71.20
2023-07-27T05:02:43.055Z,71.15
2023-07-27T05:05:12.385Z,71.44
2023-07-27T05:07:40.254Z,71.45
2023-07-27T05:10:08.563Z,71.47
2023-07-27T05:12:36.409Z,71.61
2023-07-27T05:15:04.376Z,71.79
2023-07-27T05:17:32.398Z,71.76
2023-07-27T05:20:00.288Z,71.77
2023-07-27T05:22:29.607Z,71.60
2023-07-27T05:24:57.476Z,71.71
2023-07-27T05:27:25.370Z,71.87
2023-07-27T05:29:53.301Z,71.96
2023-07-27T05:32:21.118Z,71.95
2023-07-27T05:34:48.947Z,71.95
2023-07-27T05:37:16.785Z,71.98
2023-07-27T05:39:45.965Z,72.04
2023-07-27T05:42:13.816Z,72.07
2023-07-27T05:44:41.689Z,72.09
2023-07-27T05:47:09.629Z,72.12
2023-07-27T05:49:37.461Z,72.07
2023-07-27T05:52:05.728Z,72.10
2023-07-27T05:54:33.746Z,72.29
2023-07-27T05:57:02.956Z,72.19
2023-07-27T05:59:30.767Z,72.31
2023-07-27T06:01:58.556Z,72.21
2023-07-27T06:04:28.625Z,72.20
2023-07-27T06:06:57.076Z,72.36
2023-07-27T06:09:24.900Z,72.46
2023-07-27T06:11:53.197Z,72.45
2023-07-27T06:14:22.347Z,72.45
2023-07-27T06:16:50.191Z,72.43
2023-07-27T06:19:18.044Z,72.47
2023-07-27T06:21:45.968Z,72.61
2023-07-27T06:24:13.860Z,72.60
2023-07-27T06:26:41.725Z,72.43
2023-07-27T06:29:09.529Z,72.60
2023-07-27T06:31:38.882Z,72.61
2023-07-27T06:34:07.072Z,72.56
2023-07-27T06:36:35.418Z,72.66
2023-07-27T06:39:03.505Z,72.67
2023-07-27T06:41:31.372Z,72.87
2023-07-27T06:44:01.205Z,72.71
2023-07-27T06:46:29.129Z,72.80
2023-07-27T06:48:58.456Z,72.79
2023-07-27T06:51:26.376Z,72.87
2023-07-27T06:53:54.151Z,72.85
2023-07-27T06:56:21.960Z,73.10
2023-07-27T06:58:49.797Z,73.00
2023-07-27T07:01:17.664Z,73.17
2023-07-27T07:03:45.614Z,73.21
2023-07-27T07:06:14.880Z,73.33
2023-07-27T07:08:42.754Z,73.31
2023-07-27T07:11:10.842Z,73.37
2023-07-27T07:13:38.677Z,73.47
2023-07-27T07:16:07.464Z,73.69
2023-07-27T07:18:35.351Z,73.65
2023-07-27T07:21:03.190Z,73.76
2023-07-27T07:23:32.406Z,73.67
2023-07-27T07:26:00.482Z,73.84
2023-07-27T07:28:27.261Z,73.98
2023-07-27T07:30:55.252Z,73.98
2023-07-27T07:33:23.781Z,74.09
2023-07-27T07:35:51.632Z,74.21
2023-07-27T07:38:19.998Z,74.24
2023-07-27T07:40:49.190Z,74.24
2023-07-27T07:43:16.977Z,74.38
2023-07-27T07:45:44.798Z,74.44
2023-07-27T07:48:12.692Z,74.48
2023-07-27T07:50:40.567Z,74.51
2023-07-27T07:53:10.360Z,74.70
2023-07-27T07:55:42.165Z,74.77
2023-07-27T07:58:11.387Z,74.72
2023-07-27T08:00:39.290Z,74.76
2023-07-27T08:03:07.389Z,74.64
2023-07-27T08:05:35.850Z,75.04
2023-07-27T08:08:03.866Z,74.93
2023-07-27T08:10:31.674Z,75.13
2023-07-27T08:12:59.650Z,75.08
2023-07-27T08:15:29.052Z,75.24
2023-07-27T08:17:56.960Z,75.36
2023-07-27T08:20:24.864Z,75.28
2023-07-27T08:22:53.036Z,75.36
2023-07-27T08:25:22.382Z,75.53
2023-07-27T08:27:51.676Z,75.48
2023-07-27T08:30:19.824Z,75.50
2023-07-27T08:32:49.694Z,75.65
2023-07-27T08:35:17.723Z,75.70
2023-07-27T08:37:45.663Z,75.39
2023-07-27T08:40:14.500Z,75.72
2023-07-27T08:42:44.748Z,75.87
2023-07-27T08:45:16.191Z,75.90
2023-07-27T08:47:44.220Z,75.81
2023-07-27T08:50:15.425Z,75.83
2023-07-27T08:52:43.417Z,76.04
2023-07-27T08:55:12.024Z,75.82
2023-07-27T08:57:40.141Z,76.12
2023-07-27T09:00:10.857Z,76.17
2023-07-27T09:02:40.113Z,76.16
2023-07-27T09:05:10.343Z,76.23
2023-07-27T09:07:39.601Z,76.31
2023-07-27T09:10:09.063Z,76.57
2023-07-27T09:12:37.963Z,76.59
2023-07-27T09:15:13.060Z,76.58
2023-07-27T09:17:41.528Z,76.72
2023-07-27T09:20:12.002Z,76.69
2023-07-27T09:22:41.250Z,77.11
2023-07-27T09:25:09.564Z,76.98
2023-07-27T09:27:44.575Z,76.85
2023-07-27T09:30:14.600Z,77.08
2023-07-27T09:32:42.493Z,77.25
2023-07-27T09:35:15.087Z,77.25
2023-07-27T09:37:47.124Z,77.46
2023-07-27T09:40:17.344Z,77.43
2023-07-27T09:42:46.401Z,77.44
2023-07-27T09:45:15.466Z,77.48
2023-07-27T09:47:44.165Z,77.61
2023-07-27T09:50:12.419Z,77.43
2023-07-27T09:52:41.460Z,77.78
2023-07-27T09:55:10.969Z,78.05
2023-07-27T09:57:39.616Z,78.13
2023-07-27T10:00:09.634Z,78.18
2023-07-27T10:02:46.169Z,78.26
2023-07-27T10:05:14.249Z,78.31
2023-07-27T10:07:53.735Z,78.33
2023-07-27T10:10:37.748Z,78.50
2023-07-27T10:13:12.978Z,78.46
2023-07-27T10:15:43.341Z,78.73
2023-07-27T10:18:14.933Z,78.73
2023-07-27T10:20:43.902Z,78.82
2023-07-27T10:23:18.217Z,78.93
2023-07-27T10:26:06.319Z,79.05
2023-07-27T10:28:38.787Z,79.09
2023-07-27T10:31:24.559Z,79.29
2023-07-27T10:34:07.518Z,79.32
2023-07-27T10:36:59.044Z,79.46
2023-07-27T10:39:32.081Z,79.35
2023-07-27T10:42:04.125Z,79.67
2023-07-27T10:44:42.565Z,79.62
2023-07-27T10:47:11.854Z,79.60
2023-07-27T10:49:40.840Z,79.89
2023-07-27T10:52:08.948Z,79.93
2023-07-27T10:54:41.554Z,80.11
2023-07-27T10:57:12.528Z,80.16
2023-07-27T10:59:42.200Z,80.18
2023-07-27T11:02:17.213Z,80.11
2023-07-27T11:04:45.490Z,80.47
2023-07-27T11:07:13.573Z,80.24
2023-07-27T11:09:46.798Z,80.49
2023-07-27T11:12:15.995Z,80.40
2023-07-27T11:14:43.834Z,80.73
2023-07-27T11:17:13.230Z,80.68
2023-07-27T11:19:41.456Z,80.79
2023-07-27T11:22:12.232Z,80.74
2023-07-27T11:24:41.698Z,80.90
2023-07-27T11:27:11.468Z,80.94
2023-07-27T11:29:41.772Z,80.99
2023-07-27T11:32:10.224Z,80.71
2023-07-27T11:34:38.457Z,80.99
2023-07-27T11:37:06.959Z,81.25
2023-07-27T11:39:35.847Z,81.30
2023-07-27T11:42:10.829Z,81.20
2023-07-27T11:44:39.472Z,81.28
2023-07-27T11:47:09.098Z,81.44
2023-07-27T11:49:38.700Z,81.50
2023-07-27T11:52:09.360Z,81.39
2023-07-27T11:54:41.905Z,81.58
2023-07-27T11:57:11.178Z,81.79
2023-07-27T11:59:39.126Z,81.76
2023-07-27T12:02:08.543Z,81.77
2023-07-27T12:04:36.590Z,81.85
2023-07-27T12:07:05.077Z,81.68
2023-07-27T12:09:39.211Z,81.86
2023-07-27T12:12:10.109Z,81.88
2023-07-27T12:14:44.116Z,82.06
2023-07-27T12:20:07.094Z,81.92
2023-07-27T12:22:34.854Z,82.20
2023-07-27T12:27:34.729Z,82.21
2023-07-27T12:30:21.111Z,82.27
2023-07-27T12:32:52.362Z,82.19
2023-07-27T12:37:51.019Z,82.32
2023-07-27T12:40:19.579Z,82.33
2023-07-27T12:42:48.145Z,82.49
2023-07-27T12:45:15.917Z,82.47
2023-07-27T12:47:45.072Z,82.56
2023-07-27T12:50:15.181Z,82.61
2023-07-27T12:52:43.767Z,82.63
2023-07-27T12:55:14.126Z,82.65
2023-07-27T12:57:42.227Z,82.43
2023-07-27T13:00:12.483Z,82.74
2023-07-27T13:02:40.367Z,82.71
2023-07-27T13:05:13.405Z,82.75
2023-07-27T13:07:44.202Z,82.82
2023-07-27T13:10:12.579Z,82.85
2023-07-27T13:12:40.900Z,82.79
2023-07-27T13:15:09.599Z,82.98
2023-07-27T13:17:38.024Z,82.90
2023-07-27T13:20:07.729Z,82.96
2023-07-27T13:22:35.679Z,83.04
2023-07-27T13:25:05.438Z,82.88
2023-07-27T13:27:33.706Z,83.08
2023-07-27T13:30:04.441Z,83.03
2023-07-27T13:32:32.869Z,82.91
2023-07-27T13:35:01.951Z,82.99
2023-07-27T13:37:30.675Z,83.22
2023-07-27T13:39:58.795Z,82.99
2023-07-27T13:42:28.054Z,83.24
2023-07-27T13:44:55.882Z,83.07
2023-07-27T13:47:23.725Z,82.97
2023-07-27T13:49:51.668Z,83.17
2023-07-27T13:52:21.543Z,83.04
2023-07-27T13:54:49.514Z,83.19
2023-07-27T13:57:17.355Z,83.33
2023-07-27T13:59:46.579Z,83.08
2023-07-27T14:02:14.366Z,83.38
2023-07-27T14:04:42.241Z,83.40
2023-07-27T14:07:10.609Z,83.22
2023-07-27T14:09:39.234Z,83.17
2023-07-27T14:12:08.246Z,83.22
2023-07-27T14:14:36.147Z,83.20
2023-07-27T14:17:05.682Z,83.28
2023-07-27T14:19:33.622Z,83.10
2023-07-27T14:22:01.413Z,83.17
2023-07-27T14:24:29.292Z,83.20
2023-07-27T14:26:57.093Z,83.12
2023-07-27T14:29:26.308Z,83.31
2023-07-27T14:31:54.285Z,83.09
2023-07-27T14:34:23.559Z,83.35
2023-07-27T14:36:51.356Z,83.28
2023-07-27T14:39:19.389Z,83.29
2023-07-27T14:41:47.241Z,83.09
2023-07-27T14:44:15.143Z,83.21
2023-07-27T14:46:42.932Z,83.25
2023-07-27T14:49:10.763Z,83.12
2023-07-27T14:51:39.995Z,83.03
2023-07-27T14:54:09.952Z,83.07
2023-07-27T14:56:37.985Z,82.99
2023-07-27T14:59:08.901Z,82.97
2023-07-27T15:01:50.800Z,82.95
2023-07-27T15:06:51.412Z,82.93
2023-07-27T15:09:19.422Z,82.90
2023-07-27T15:11:47.252Z,82.90
2023-07-27T15:14:15.077Z,82.80
2023-07-27T15:16:43.463Z,82.82
2023-07-27T15:19:11.425Z,82.85
2023-07-27T15:21:39.344Z,82.83
2023-07-27T15:24:09.122Z,82.71
2023-07-27T15:26:39.200Z,82.62
2023-07-27T15:29:07.390Z,82.57
2023-07-27T15:31:35.201Z,82.76
2023-07-27T15:34:03.119Z,82.47
2023-07-27T15:36:30.954Z,82.63
2023-07-27T15:38:58.934Z,82.35
2023-07-27T15:41:28.068Z,82.36
2023-07-27T15:43:56.294Z,82.36
2023-07-27T15:46:24.296Z,82.37
2023-07-27T15:48:52.161Z,82.20
2023-07-27T15:51:21.513Z,82.33
2023-07-27T15:53:49.573Z,82.25
2023-07-27T15:56:17.529Z,82.20
2023-07-27T15:58:46.721Z,82.27
2023-07-27T16:01:14.892Z,82.22
2023-07-27T16:03:42.970Z,82.04
2023-07-27T16:06:10.796Z,82.20
2023-07-27T16:08:38.652Z,82.04
2023-07-27T16:11:10.723Z,81.97
2023-07-27T16:13:38.580Z,81.83
2023-07-27T16:16:08.131Z,81.90
2023-07-27T16:18:37.000Z,81.76
2023-07-27T16:21:05.277Z,81.90
2023-07-27T16:23:34.554Z,81.86
2023-07-27T16:26:06.099Z,81.75
2023-07-27T16:28:34.383Z,81.76
2023-07-27T16:31:02.540Z,81.83
2023-07-27T16:33:31.786Z,81.76
2023-07-27T16:35:59.820Z,81.58
2023-07-27T16:38:27.677Z,81.66
2023-07-27T16:40:55.505Z,81.72
2023-07-27T16:43:23.338Z,81.70
2023-07-27T16:45:51.129Z,81.57
2023-07-27T16:48:19.009Z,81.61
2023-07-27T16:50:48.148Z,81.60
2023-07-27T16:53:15.993Z,81.36
2023-07-27T16:55:43.771Z,81.62
2023-07-27T16:58:11.642Z,81.53
2023-07-27T17:00:39.444Z,81.42
2023-07-27T17:03:07.467Z,81.53
2023-07-27T17:05:39.757Z,81.42
2023-07-27T17:08:11.174Z,81.48
2023-07-27T17:10:39.103Z,81.46
2023-07-27T17:13:06.932Z,81.36
2023-07-27T17:15:34.908Z,81.45
2023-07-27T17:18:02.811Z,81.64
2023-07-27T17:20:30.791Z,81.58
2023-07-27T17:22:58.606Z,81.50
2023-07-27T17:25:27.855Z,81.50
2023-07-27T17:27:55.771Z,81.56
2023-07-27T17:30:23.692Z,81.50
2023-07-27T17:32:51.537Z,81.60
2023-07-27T17:35:19.439Z,81.46
2023-07-27T17:37:47.261Z,81.65
2023-07-27T17:40:15.196Z,81.71
2023-07-27T17:42:44.465Z,81.76
2023-07-27T17:45:12.330Z,81.81
2023-07-27T17:47:40.169Z,81.76
2023-07-27T17:50:09.280Z,81.96
2023-07-27T17:52:37.277Z,82.07
2023-07-27T17:55:08.347Z,81.89
2023-07-27T17:57:36.253Z,82.03
2023-07-27T18:00:07.094Z,82.22
2023-07-27T18:02:39.723Z,82.08
2023-07-27T18:05:07.909Z,82.24
2023-07-27T18:07:36.007Z,82.08
2023-07-27T18:10:04.427Z,82.44
2023-07-27T18:12:32.301Z,82.50
2023-07-27T18:15:01.474Z,82.44
2023-07-27T18:17:33.731Z,82.40
2023-07-27T18:20:02.209Z,82.64
2023-07-27T18:22:31.258Z,82.80
2023-07-27T18:25:00.433Z,82.69
2023-07-27T18:27:28.422Z,82.66
2023-07-27T18:29:56.276Z,82.95
2023-07-27T18:32:24.113Z,82.79
2023-07-27T18:34:55.528Z,82.80
2023-07-27T18:37:23.608Z,82.88
2023-07-27T18:39:51.405Z,83.10
2023-07-27T18:42:19.395Z,83.08
2023-07-27T18:44:47.193Z,83.21
2023-07-27T18:47:15.052Z,83.03
2023-07-27T18:49:42.902Z,83.40
2023-07-27T18:52:12.148Z,83.39
2023-07-27T18:54:41.467Z,83.34
2023-07-27T18:57:09.983Z,83.34
2023-07-27T18:59:37.835Z,83.46
2023-07-27T19:02:06.495Z,83.25
2023-07-27T19:04:34.374Z,83.44
2023-07-27T19:07:02.222Z,83.50
2023-07-27T19:09:31.457Z,83.67
2023-07-27T19:11:59.273Z,83.68
2023-07-27T19:14:27.125Z,83.74
2023-07-27T19:16:54.953Z,83.78
2023-07-27T19:19:22.810Z,83.68
2023-07-27T19:21:50.948Z,83.89
2023-07-27T19:24:19.561Z,83.90
2023-07-27T19:26:48.745Z,83.82
2023-07-27T19:29:18.825Z,83.83
2023-07-27T19:31:47.737Z,83.99
2023-07-27T19:34:16.082Z,83.99
2023-07-27T19:36:43.923Z,84.00
2023-07-27T19:39:11.792Z,84.07
2023-07-27T19:41:40.880Z,84.25
2023-07-27T19:44:10.173Z,84.07
2023-07-27T19:46:38.624Z,84.06
2023-07-27T19:49:06.692Z,84.15
2023-07-27T19:51:34.987Z,84.41
2023-07-27T19:54:02.783Z,84.18
2023-07-27T19:56:30.653Z,84.41
2023-07-27T19:58:58.518Z,84.35
2023-07-27T20:01:27.720Z,84.41
2023-07-27T20:03:55.617Z,84.37
2023-07-27T20:06:23.531Z,84.60
2023-07-27T20:08:51.392Z,84.43
2023-07-27T20:11:19.300Z,84.51
2023-07-27T20:13:47.573Z,84.76
2023-07-27T20:16:15.626Z,84.60
2023-07-27T20:18:46.507Z,84.57
2023-07-27T20:21:15.631Z,84.77
2023-07-27T20:23:44.456Z,84.81
2023-07-27T20:26:12.453Z,84.72
2023-07-27T20:28:40.300Z,84.76
2023-07-27T20:31:09.582Z,84.84
2023-07-27T20:33:37.724Z,84.90
2023-07-27T20:36:07.428Z,85.04
2023-07-27T20:38:34.356Z,85.07
2023-07-27T20:41:04.456Z,84.95
2023-07-27T20:43:32.457Z,85.10
2023-07-27T20:46:01.064Z,85.09
2023-07-27T20:48:29.026Z,85.16
2023-07-27T20:50:56.940Z,85.06
2023-07-27T20:53:26.076Z,85.06
2023-07-27T20:55:53.892Z,85.23
2023-07-27T20:58:21.756Z,85.25
2023-07-27T21:00:49.637Z,85.07
2023-07-27T21:03:17.556Z,85.21
2023-07-27T21:05:45.376Z,85.11
2023-07-27T21:08:13.203Z,85.36
2023-07-27T21:10:42.367Z,85.43
2023-07-27T21:13:10.197Z,85.32
2023-07-27T21:15:38.010Z,85.42
2023-07-27T21:18:06.000Z,85.29
2023-07-27T21:20:34.843Z,85.48
2023-07-27T21:23:02.801Z,85.46
2023-07-27T21:25:30.601Z,85.50
2023-07-27T21:27:59.869Z,85.62
2023-07-27T21:30:27.843Z,85.44
2023-07-27T21:32:55.705Z,85.58
2023-07-27T21:35:23.551Z,85.45
2023-07-27T21:37:51.341Z,85.72
2023-07-27T21:40:19.143Z,85.67
2023-07-27T21:42:46.950Z,85.69
2023-07-27T21:45:16.525Z,85.99
2023-07-27T21:47:44.377Z,85.66
2023-07-27T21:50:12.319Z,85.75
2023-07-27T21:52:40.183Z,85.84
2023-07-27T21:55:08.917Z,85.66
2023-07-27T21:57:36.813Z,85.95
2023-07-27T22:00:05.421Z,86.04
2023-07-27T22:06:36.223Z,86.00
2023-07-27T22:09:04.656Z,85.88
2023-07-27T22:11:32.487Z,86.05
2023-07-27T22:14:00.369Z,85.95
2023-07-27T22:16:28.150Z,85.98
2023-07-27T22:18:56.539Z,86.10
2023-07-27T22:21:24.356Z,86.09
2023-07-27T22:23:53.864Z,86.26
2023-07-27T22:26:21.692Z,86.09
2023-07-27T22:28:49.672Z,86.12
2023-07-27T22:31:17.914Z,86.06
2023-07-27T22:33:45.779Z,86.17
2023-07-27T22:36:13.588Z,86.19
2023-07-27T22:38:41.456Z,86.25
2023-07-27T22:41:10.626Z,86.46
2023-07-27T22:43:38.532Z,86.36
2023-07-27T22:46:06.661Z,86.33
2023-07-27T22:48:34.553Z,86.48
2023-07-27T22:51:02.387Z,86.08
2023-07-27T22:53:30.197Z,86.30
2023-07-27T22:55:58.031Z,86.50
2023-07-27T22:58:27.273Z,86.49
2023-07-27T23:00:55.324Z,86.54
2023-07-27T23:03:23.228Z,86.39
2023-07-27T23:05:51.069Z,86.54
2023-07-27T23:08:20.597Z,86.65
2023-07-27T23:10:48.690Z,86.43
2023-07-27T23:13:16.544Z,86.42
2023-07-27T23:15:45.741Z,86.51
2023-07-27T23:18:14.636Z,86.45
2023-07-27T23:20:42.506Z,86.76
2023-07-27T23:23:10.383Z,86.47
2023-07-27T23:25:38.237Z,86.70
2023-07-27T23:28:06.120Z,86.64
2023-07-27T23:30:34.104Z,86.74
2023-07-27T23:33:03.334Z,86.99
2023-07-27T23:35:31.249Z,86.78
2023-07-27T23:37:59.057Z,86.71
2023-07-27T23:40:26.886Z,86.68
2023-07-27T23:42:54.780Z,86.69
2023-07-27T23:45:22.780Z,86.63
2023-07-27T23:47:50.670Z,86.74
2023-07-27T23:50:19.941Z,86.88
2023-07-27T23:52:47.813Z,86.90
2023-07-27T23:55:16.166Z,86.94
2023-07-27T23:57:44.236Z,86.95
